Saint-Pacome, Canada
Current Conditions -  °F | °C
As of 10:32 PM on Friday 28 Nov 2014 (Local Time) from KFVE Reporting Station
Overcast Overcast  
Wind Chill:   Ceiling: 1200
Heat Index: 11°   Visibility: 8mi
Dew Point:   Wind: 7mph
Humidity: 88%   Direction: 320°NW
Pressure: 30.01"   Gusts: NA
Location:  47.42°N, 69.95°W
Report Text: KFVE 290332Z AUTO 32006KT 8SM OVC012 M12/M13 A3001 RMK AO2 T11171133
Loading
Personal Weather Stations






























Interactive Weather Map New forecast layout! Learn more

10-Day Weather Forecast

Advertisements
Track Severe Weather on mobile